Santo Antonio de Padua, Brazil
Current Conditions -  °F | °C
As of 6:00 PM on Tuesday 21 Oct 2014 (Local Time) from SBCP Reporting Station
Overcast Overcast  
Wind Chill: 73°   Ceiling: 9000
Heat Index: 73°   Visibility: 6mi
Dew Point: 64°   Wind: 12mph
Humidity: 73%   Direction: 180°S
Pressure: 30.09"   Gusts: NA
Location:  21.56°S, 42.19°W
Report Text: SBCP 212000Z 18010KT 9999 FEW020 OVC090 23/18 Q1019
Loading
Personal Weather Stations






























Interactive Weather Map
Tropical Storm Tracking
New forecast layout! Learn more

10-Day Weather Forecast

Advertisements
Track Severe Weather on mobile